Time;durP1;ratioP1;P1;durP2;ratioP2;P2;SDS_P1;SDS_P2;PMS_P1;PMS_P2;Temp;Humidity;BMP_temperature;BMP_pressure;BME280_temperature;BME280_humidity;BME280_pressure;Samples;Min_cycle;Max_cycle;Signal;HPM_P1;HPM_P2
2023/07/02 00:00:04;;;;;;;3.53;2.80;;;;;;;16.44;91.95;100222.91;6205121;28;20552;-68
2023/07/02 00:03:30;;;;;;;5.28;2.05;;;;;;;16.27;92.25;100225.00;6487550;22;20601;-69
2023/07/02 00:06:50;;;;;;;2.13;1.83;;;;;;;16.44;92.66;100233.78;6235022;28;20227;-69
2023/07/02 00:10:11;;;;;;;3.63;1.70;;;;;;;16.39;92.95;100231.66;6224001;28;20392;-68
2023/07/02 00:13:32;;;;;;;1.97;1.73;;;;;;;16.29;92.78;100224.81;6226562;28;20240;-68
2023/07/02 00:16:55;;;;;;;4.00;2.17;;;;;;;16.34;92.76;100216.94;6240996;28;20228;-69
2023/07/02 00:20:17;;;;;;;5.93;2.10;;;;;;;16.19;93.31;100225.09;6232411;28;20239;-68
2023/07/02 00:23:38;;;;;;;4.33;1.67;;;;;;;16.21;93.85;100231.19;6232227;28;20471;-69
2023/07/02 00:26:59;;;;;;;3.63;2.77;;;;;;;16.21;94.05;100217.59;6217995;28;20231;-68
2023/07/02 00:30:20;;;;;;;2.03;1.90;;;;;;;16.24;94.04;100216.38;6220982;28;20313;-68
2023/07/02 00:33:42;;;;;;;3.63;2.03;;;;;;;16.14;93.87;100221.25;6221347;28;20227;-68
2023/07/02 00:37:03;;;;;;;2.23;2.07;;;;;;;16.09;94.48;100221.81;6265618;28;20230;-68
2023/07/02 00:40:24;;;;;;;3.00;1.90;;;;;;;16.25;94.22;100215.34;6264738;28;20219;-68
2023/07/02 00:43:46;;;;;;;2.70;1.67;;;;;;;16.21;94.01;100231.19;6259195;28;20338;-69
2023/07/02 00:47:07;;;;;;;2.60;2.00;;;;;;;16.22;94.46;100226.59;6243300;28;20231;-69
2023/07/02 00:50:30;;;;;;;2.80;2.60;;;;;;;16.14;94.10;100218.53;6247500;28;20325;-68
2023/07/02 00:53:52;;;;;;;2.07;1.70;;;;;;;16.24;94.61;100221.81;6276387;28;20313;-69
2023/07/02 00:57:13;;;;;;;3.37;2.57;;;;;;;16.31;94.24;100209.97;6257847;28;20333;-68
2023/07/02 01:00:36;;;;;;;5.33;2.23;;;;;;;16.37;93.79;100220.13;6231968;28;20231;-68
2023/07/02 01:04:00;;;;;;;3.37;2.23;;;;;;;16.27;94.04;100218.72;6250839;28;20254;-68
2023/07/02 01:07:22;;;;;;;2.80;2.20;;;;;;;16.28;94.21;100209.53;6243050;28;20236;-69
2023/07/02 01:10:43;;;;;;;5.47;2.37;;;;;;;16.35;93.43;100202.31;6239264;28;20966;-69
2023/07/02 01:14:08;;;;;;;2.90;1.77;;;;;;;16.37;93.29;100211.13;6248189;28;20758;-69
2023/07/02 01:17:41;;;;;;;1.90;1.70;;;;;;;16.37;93.66;100208.41;6229716;28;20889;-68
2023/07/02 01:21:06;;;;;;;3.30;2.63;;;;;;;16.37;93.26;100227.44;6232332;28;20314;-69
2023/07/02 01:24:27;;;;;;;4.90;2.20;;;;;;;16.37;93.09;100222.00;6245229;28;20223;-68
2023/07/02 01:27:48;;;;;;;3.20;2.43;;;;;;;16.28;93.33;100214.97;6247143;28;20232;-68
2023/07/02 01:31:08;;;;;;;4.40;2.57;;;;;;;16.27;93.56;100222.28;6231177;28;20350;-68
2023/07/02 01:34:30;;;;;;;2.37;1.90;;;;;;;16.28;93.64;100217.69;6248431;28;20239;-68
2023/07/02 01:37:53;;;;;;;1.97;1.70;;;;;;;16.26;93.50;100209.72;6246264;28;20227;-68
2023/07/02 01:41:14;;;;;;;8.33;2.43;;;;;;;16.34;93.88;100203.31;6237180;28;20564;-68
2023/07/02 01:44:35;;;;;;;5.10;3.33;;;;;;;16.27;93.81;100200.50;6248262;28;20227;-68
2023/07/02 01:47:56;;;;;;;2.97;2.30;;;;;;;16.24;93.25;100205.50;6243962;28;20228;-68
2023/07/02 01:51:16;;;;;;;4.10;2.60;;;;;;;16.33;93.73;100202.50;6244269;28;20601;-68
2023/07/02 01:54:39;;;;;;;3.27;2.23;;;;;;;16.19;94.22;100216.13;6222890;28;20318;-69
2023/07/02 01:58:00;;;;;;;4.60;2.40;;;;;;;16.27;93.94;100211.41;6232031;28;20615;-69
2023/07/02 02:01:20;;;;;;;5.87;3.00;;;;;;;16.20;94.04;100221.34;6245180;28;20524;-70
2023/07/02 02:04:41;;;;;;;3.73;2.20;;;;;;;16.23;94.41;100210.09;6235053;28;20223;-68
2023/07/02 02:08:02;;;;;;;3.70;2.80;;;;;;;16.16;94.35;100209.16;6237473;28;20234;-68
2023/07/02 02:11:24;;;;;;;4.43;4.03;;;;;;;16.09;94.59;100210.09;6258349;28;20538;-68
2023/07/02 02:14:45;;;;;;;4.93;2.47;;;;;;;16.20;94.22;100215.91;6239944;28;20229;-68
2023/07/02 02:18:06;;;;;;;7.37;2.47;;;;;;;16.16;94.15;100211.03;6246875;28;20223;-69
2023/07/02 02:21:27;;;;;;;2.50;2.30;;;;;;;16.20;94.55;100215.06;6257080;28;20304;-68
2023/07/02 02:24:48;;;;;;;4.67;2.60;;;;;;;16.06;94.28;100213.19;6255470;28;20235;-69
2023/07/02 02:28:10;;;;;;;3.40;2.93;;;;;;;16.11;94.09;100225.19;6245589;28;20226;-68
2023/07/02 02:31:31;;;;;;;5.53;2.40;;;;;;;16.23;93.66;100217.44;6259714;28;20232;-68
2023/07/02 02:34:52;;;;;;;2.93;2.00;;;;;;;16.13;93.63;100216.84;6230740;28;20235;-69
2023/07/02 02:38:14;;;;;;;4.17;2.63;;;;;;;16.13;93.73;100222.28;6229940;28;20227;-68
2023/07/02 02:41:35;;;;;;;3.13;2.90;;;;;;;16.04;93.89;100220.72;6243478;28;20231;-67
2023/07/02 02:44:57;;;;;;;10.20;2.57;;;;;;;16.09;93.52;100229.97;6236670;28;20239;-68
2023/07/02 02:48:18;;;;;;;3.97;2.37;;;;;;;16.09;93.89;100223.69;6242713;28;21077;-71
2023/07/02 02:51:40;;;;;;;2.87;2.67;;;;;;;16.10;93.48;100217.22;6260294;28;20715;-69
2023/07/02 02:55:01;;;;;;;2.97;2.60;;;;;;;16.00;93.82;100231.94;6251951;28;20338;-69
2023/07/02 02:58:22;;;;;;;3.07;2.43;;;;;;;15.96;94.01;100222.47;6248089;28;20246;-69
2023/07/02 03:01:45;;;;;;;3.67;3.07;;;;;;;15.96;94.03;100230.63;6230788;28;20691;-69
2023/07/02 03:05:07;;;;;;;2.50;2.30;;;;;;;15.97;93.83;100231.47;6246760;28;20240;-68
2023/07/02 03:08:28;;;;;;;4.43;3.30;;;;;;;15.99;93.47;100240.28;6228198;28;20540;-67
2023/07/02 03:11:49;;;;;;;3.00;2.70;;;;;;;15.99;93.83;100235.72;6259856;28;20255;-69
2023/07/02 03:15:11;;;;;;;6.43;3.10;;;;;;;15.98;93.75;100228.56;6234618;28;20231;-68
2023/07/02 03:18:33;;;;;;;3.30;2.70;;;;;;;15.96;93.58;100227.06;6238654;28;20262;-68
2023/07/02 03:21:54;;;;;;;4.30;2.90;;;;;;;15.97;93.33;100232.34;6258746;28;20235;-69
2023/07/02 03:25:15;;;;;;;3.40;2.70;;;;;;;15.99;93.48;100243.00;6253558;28;20232;-68
2023/07/02 03:28:36;;;;;;;4.87;3.53;;;;;;;15.93;93.86;100235.59;6257153;28;20270;-69
2023/07/02 03:31:57;;;;;;;6.83;3.23;;;;;;;15.84;93.47;100220.41;6254263;28;20976;-68
2023/07/02 03:35:20;;;;;;;5.73;3.13;;;;;;;15.85;93.46;100231.06;6255764;28;20540;-69
2023/07/02 03:38:40;;;;;;;10.90;3.97;;;;;;;15.95;93.23;100225.38;6246194;28;20227;-69
2023/07/02 03:42:02;;;;;;;7.17;3.10;;;;;;;15.90;92.77;100227.81;6252113;28;20520;-69
2023/07/02 03:45:22;;;;;;;8.97;3.77;;;;;;;15.98;92.28;100225.84;6246021;28;20223;-69
2023/07/02 03:48:43;;;;;;;6.53;3.53;;;;;;;16.01;92.30;100221.91;6243792;28;20227;-68
2023/07/02 03:52:07;;;;;;;6.37;3.60;;;;;;;15.98;92.13;100235.88;6252147;28;20228;-69
2023/07/02 03:55:28;;;;;;;5.60;3.57;;;;;;;15.89;91.60;100243.31;6250861;28;20228;-68
2023/07/02 03:58:49;;;;;;;4.33;3.80;;;;;;;16.00;91.10;100229.22;6233788;28;20232;-69
2023/07/02 04:02:10;;;;;;;6.33;4.53;;;;;;;15.96;90.82;100238.78;6243972;28;20223;-69
2023/07/02 04:05:31;;;;;;;4.33;3.33;;;;;;;15.99;90.46;100240.28;6250439;28;20608;-69
2023/07/02 04:08:53;;;;;;;6.00;3.73;;;;;;;16.02;90.37;100236.38;6240452;28;20231;-69
2023/07/02 04:12:14;;;;;;;3.83;3.17;;;;;;;15.94;89.79;100253.59;6250746;28;20259;-69
2023/07/02 04:15:36;;;;;;;4.57;3.57;;;;;;;16.03;89.35;100238.88;6250872;28;20239;-68
2023/07/02 04:18:57;;;;;;;7.87;3.27;;;;;;;16.05;89.47;100247.69;6244877;28;20239;-69
2023/07/02 04:22:19;;;;;;;10.07;3.67;;;;;;;16.04;89.37;100248.75;6250225;28;20236;-70
2023/07/02 04:25:41;;;;;;;6.60;3.43;;;;;;;16.10;89.01;100247.16;6253047;28;20220;-69
2023/07/02 04:29:02;;;;;;;5.77;3.20;;;;;;;16.08;88.74;100255.50;6240108;28;20306;-69
2023/07/02 04:32:24;;;;;;;8.57;3.47;;;;;;;16.10;88.70;100258.88;6247374;28;20564;-68
2023/07/02 04:35:45;;;;;;;9.63;3.57;;;;;;;16.12;88.64;100248.66;6253591;28;20239;-69
2023/07/02 04:39:06;;;;;;;7.17;3.57;;;;;;;16.06;88.24;100271.16;6248067;28;20334;-68
2023/07/02 04:42:31;;;;;;;7.80;3.93;;;;;;;16.26;87.69;100258.69;6251720;28;20239;-68
2023/07/02 04:45:52;;;;;;;5.93;3.53;;;;;;;15.96;87.45;100257.81;6235270;28;20331;-67
2023/07/02 04:49:13;;;;;;;5.87;3.80;;;;;;;16.07;87.79;100237.47;6248282;28;20231;-68
2023/07/02 04:52:33;;;;;;;10.33;4.23;;;;;;;16.11;87.14;100257.81;6253447;28;20224;-68
2023/07/02 04:55:54;;;;;;;8.00;3.67;;;;;;;16.16;86.78;100251.84;6251599;28;20232;-68
2023/07/02 04:59:17;;;;;;;10.00;5.23;;;;;;;16.14;86.91;100265.63;6251346;28;20234;-67
2023/07/02 05:02:38;;;;;;;10.17;4.97;;;;;;;16.19;86.49;100290.38;6241708;28;20597;-68
2023/07/02 05:05:59;;;;;;;12.30;4.63;;;;;;;16.14;86.23;100264.78;6246416;28;20231;-68
2023/07/02 05:09:20;;;;;;;7.37;4.47;;;;;;;16.12;86.25;100259.53;6247915;28;20246;-68
2023/07/02 05:12:41;;;;;;;6.67;4.63;;;;;;;16.33;86.04;100261.50;6251533;28;20322;-69
2023/07/02 05:16:04;;;;;;;5.53;3.90;;;;;;;16.33;85.98;100269.66;6232528;28;20467;-69
2023/07/02 05:19:24;;;;;;;8.50;4.63;;;;;;;16.34;85.59;100255.88;6245886;28;20656;-68
2023/07/02 05:22:45;;;;;;;7.90;5.03;;;;;;;16.22;85.79;100260.09;6249290;28;20235;-68
2023/07/02 05:26:06;;;;;;;14.47;4.77;;;;;;;16.24;85.61;100270.78;6240237;28;20251;-68
2023/07/02 05:29:27;;;;;;;6.97;3.80;;;;;;;16.43;85.39;100262.91;6237047;28;20607;-69
2023/07/02 05:32:49;;;;;;;8.03;5.30;;;;;;;16.38;84.69;100267.19;6247140;28;20247;-68
2023/07/02 05:36:10;;;;;;;9.97;5.13;;;;;;;16.52;84.73;100267.22;6243404;28;20802;-68
2023/07/02 05:39:31;;;;;;;6.07;4.40;;;;;;;16.59;84.67;100265.44;6246469;28;21088;-68
2023/07/02 05:42:52;;;;;;;10.97;4.93;;;;;;;16.64;83.94;100271.19;6237841;28;20223;-68
2023/07/02 05:46:14;;;;;;;11.97;5.17;;;;;;;16.55;84.05;100279.63;6253935;28;20236;-68
2023/07/02 05:49:36;;;;;;;10.00;5.33;;;;;;;16.67;83.90;100286.25;6248239;28;20227;-68
2023/07/02 05:52:57;;;;;;;9.77;4.87;;;;;;;16.74;83.99;100273.59;6233951;28;20220;-69
2023/07/02 05:56:17;;;;;;;8.07;5.03;;;;;;;16.68;83.72;100279.78;6245277;28;20235;-69
2023/07/02 05:59:38;;;;;;;10.50;5.37;;;;;;;16.77;83.40;100276.75;6247066;28;20227;-68
2023/07/02 06:02:59;;;;;;;6.87;4.77;;;;;;;16.76;82.65;100285.13;6225614;28;20326;-67
2023/07/02 06:06:24;;;;;;;13.37;6.17;;;;;;;17.04;82.62;100267.06;6253093;28;20223;-68
2023/07/02 06:09:45;;;;;;;12.90;5.20;;;;;;;17.03;81.96;100269.94;6239591;28;21156;-67
2023/07/02 06:13:05;;;;;;;10.93;4.70;;;;;;;16.86;81.59;100274.78;6239625;28;20232;-69
2023/07/02 06:16:26;;;;;;;9.20;5.27;;;;;;;16.91;81.43;100280.50;6256324;28;20251;-69
2023/07/02 06:19:47;;;;;;;13.73;6.13;;;;;;;17.22;81.08;100280.22;6243876;28;20231;-69
2023/07/02 06:23:09;;;;;;;12.87;6.60;;;;;;;17.26;80.66;100273.34;6233523;28;20236;-68
2023/07/02 06:26:31;;;;;;;11.67;7.20;;;;;;;17.24;79.90;100283.59;6253190;28;20587;-67
2023/07/02 06:29:52;;;;;;;10.90;6.00;;;;;;;17.45;79.66;100270.81;6253905;28;20235;-69
2023/07/02 06:33:13;;;;;;;6.47;4.75;;;;;;;17.22;79.14;100281.06;6239512;28;20608;-69
2023/07/02 06:36:34;;;;;;;10.63;5.55;;;;;;;17.41;79.09;100288.59;6255978;28;20252;-70
2023/07/02 06:39:56;;;;;;;6.68;5.30;;;;;;;17.26;78.77;100287.81;6252979;28;20251;-68
2023/07/02 06:43:17;;;;;;;14.32;7.68;;;;;;;17.55;78.38;100293.16;6247950;28;20227;-69
2023/07/02 06:46:38;;;;;;;17.05;6.25;;;;;;;17.53;78.24;100289.81;6256932;28;20250;-68
2023/07/02 06:49:59;;;;;;;11.68;6.70;;;;;;;17.82;77.85;100299.69;6256202;28;20232;-69
2023/07/02 06:53:20;;;;;;;10.20;5.38;;;;;;;18.02;77.25;100289.78;6229315;28;20245;-68
2023/07/02 06:56:42;;;;;;;8.47;5.23;;;;;;;17.86;76.91;100313.78;6259014;28;20219;-68
2023/07/02 07:00:04;;;;;;;8.68;5.72;;;;;;;17.82;76.85;100321.50;6250617;28;20497;-67
2023/07/02 07:03:25;;;;;;;7.70;4.90;;;;;;;17.89;76.79;100310.66;6233425;28;20239;-68
2023/07/02 07:06:45;;;;;;;9.23;7.10;;;;;;;17.96;76.44;100317.03;6244589;28;20308;-69
2023/07/02 07:10:08;;;;;;;10.65;5.53;;;;;;;17.96;76.32;100317.03;6255323;28;20230;-68
2023/07/02 07:13:30;;;;;;;10.63;4.97;;;;;;;17.97;76.63;100322.28;6244841;28;20227;-68
2023/07/02 07:16:50;;;;;;;13.30;5.70;;;;;;;18.63;75.70;100329.06;6254868;28;20285;-68
2023/07/02 07:20:12;;;;;;;10.95;5.45;;;;;;;18.54;74.74;100338.47;6252915;28;20319;-68
2023/07/02 07:23:33;;;;;;;14.70;5.22;;;;;;;18.53;73.63;100328.59;6243569;28;20224;-69
2023/07/02 07:26:54;;;;;;;10.23;4.90;;;;;;;18.35;73.27;100329.09;6234349;28;20227;-68
2023/07/02 07:30:22;;;;;;;19.23;5.63;;;;;;;17.99;73.03;100330.25;6243189;28;20228;-68
2023/07/02 07:33:43;;;;;;;14.18;7.10;;;;;;;17.66;74.86;100340.03;6245474;28;20653;-68
2023/07/02 07:37:05;;;;;;;8.35;5.00;;;;;;;17.44;76.22;100339.97;6253755;28;20235;-68
2023/07/02 07:40:26;;;;;;;14.77;5.73;;;;;;;17.36;76.76;100356.47;6253442;28;20319;-68
2023/07/02 07:43:47;;;;;;;9.10;5.70;;;;;;;17.88;76.49;100347.16;6247205;28;20734;-66
2023/07/02 07:47:09;;;;;;;8.10;4.90;;;;;;;17.97;74.82;100344.09;6252725;28;20243;-67
2023/07/02 07:50:30;;;;;;;8.95;5.53;;;;;;;18.18;73.67;100357.72;6248749;28;20315;-70
2023/07/02 07:53:51;;;;;;;11.02;5.85;;;;;;;18.04;71.18;100342.28;6242049;28;20251;-71
2023/07/02 07:57:12;;;;;;;9.20;4.70;;;;;;;18.21;70.26;100357.31;6255895;28;20239;-70
2023/07/02 08:00:32;;;;;;;10.30;5.18;;;;;;;18.47;69.42;100353.97;6246360;28;20269;-70
2023/07/02 08:03:55;;;;;;;27.98;7.47;;;;;;;18.19;69.00;100353.09;6220230;28;20243;-67
2023/07/02 08:07:15;;;;;;;9.50;5.18;;;;;;;18.49;68.56;100353.75;6234958;28;20456;-67
2023/07/02 08:10:36;;;;;;;9.18;4.85;;;;;;;19.05;67.79;100350.72;6243399;28;20223;-68
2023/07/02 08:13:57;;;;;;;8.68;4.68;;;;;;;18.84;65.71;100345.34;6244898;28;20730;-67
2023/07/02 08:17:18;;;;;;;8.38;5.00;;;;;;;18.91;63.95;100351.72;6249241;28;20577;-67
2023/07/02 08:20:40;;;;;;;4.60;3.83;;;;;;;19.31;62.23;100357.31;6252331;28;20231;-68
2023/07/02 08:24:01;;;;;;;9.48;5.13;;;;;;;18.94;62.03;100359.47;6249618;28;20231;-67
2023/07/02 08:27:23;;;;;;;8.50;4.97;;;;;;;18.70;62.72;100337.28;6250593;28;20239;-68
2023/07/02 08:30:46;;;;;;;10.95;4.97;;;;;;;18.63;62.23;100355.53;6242591;28;20617;-67
2023/07/02 08:34:06;;;;;;;7.60;3.97;;;;;;;18.70;61.56;100351.81;6245355;28;20222;-68
2023/07/02 08:37:29;;;;;;;10.73;4.43;;;;;;;19.05;61.18;100369.00;6255615;28;20251;-69
2023/07/02 08:40:50;;;;;;;8.10;3.70;;;;;;;19.28;61.67;100357.72;6231729;28;20231;-68
2023/07/02 08:44:12;;;;;;;7.78;5.00;;;;;;;19.61;60.19;100362.28;6254921;28;20235;-67
2023/07/02 08:47:33;;;;;;;7.63;4.72;;;;;;;19.45;58.77;100370.00;6243039;28;20255;-66
2023/07/02 08:50:54;;;;;;;5.30;3.67;;;;;;;19.95;58.59;100361.28;6255633;28;20536;-66
2023/07/02 08:54:18;;;;;;;7.72;4.07;;;;;;;19.44;57.01;100363.69;6245897;28;20222;-69
2023/07/02 08:57:39;;;;;;;5.03;3.92;;;;;;;19.31;56.12;100365.53;6258876;28;20236;-67
2023/07/02 09:01:10;;;;;;;5.65;4.03;;;;;;;19.63;55.85;100351.16;6243484;28;20268;-68
2023/07/02 09:04:31;;;;;;;7.25;3.50;;;;;;;19.98;56.04;100381.91;6235189;28;20596;-67
2023/07/02 09:07:52;;;;;;;7.20;3.05;;;;;;;19.91;54.90;100385.50;6223869;28;20243;-67
2023/07/02 09:11:16;;;;;;;6.97;3.63;;;;;;;20.27;54.84;100400.72;6248552;28;20354;-66
2023/07/02 09:14:39;;;;;;;7.00;3.95;;;;;;;19.71;55.30;100400.19;6244684;28;20352;-67
2023/07/02 09:18:02;;;;;;;5.03;2.92;;;;;;;19.79;56.86;100394.53;6236326;28;20231;-68
2023/07/02 09:21:23;;;;;;;41.83;21.95;;;;;;;19.47;58.79;100408.94;6255142;28;20227;-68
2023/07/02 09:24:59;;;;;;;4.85;4.30;;;;;;;19.29;58.83;100449.63;6250237;28;20274;-69
2023/07/02 09:28:23;;;;;;;222.98;137.32;;;;;;;19.53;59.22;100468.28;6231237;28;20595;-70
2023/07/02 09:31:45;;;;;;;24.80;22.25;;;;;;;19.35;64.24;100452.44;6245250;28;20236;-71
2023/07/02 09:35:07;;;;;;;48.05;38.05;;;;;;;18.75;64.72;100464.03;6246041;28;20262;-69
2023/07/02 09:38:28;;;;;;;11.82;4.65;;;;;;;18.06;68.13;100468.44;6226202;28;20235;-69
2023/07/02 09:41:50;;;;;;;4.97;3.38;;;;;;;18.05;70.25;100455.81;6242991;28;20235;-69
2023/07/02 09:45:14;;;;;;;7.70;4.00;;;;;;;18.21;70.16;100461.00;6239233;28;20227;-69
2023/07/02 09:48:36;;;;;;;6.15;3.60;;;;;;;18.82;69.09;100447.66;6217674;28;20345;-70
2023/07/02 09:51:57;;;;;;;7.35;4.50;;;;;;;19.23;68.44;100444.97;6241754;28;20239;-69
2023/07/02 09:55:19;;;;;;;8.50;4.20;;;;;;;19.75;65.95;100429.66;6237856;28;20523;-69
2023/07/02 09:58:40;;;;;;;7.20;3.42;;;;;;;19.71;62.00;100446.69;6225724;28;20226;-68
2023/07/02 10:02:02;;;;;;;6.47;3.40;;;;;;;19.63;59.09;100441.41;6237915;28;20224;-69
2023/07/02 10:05:27;;;;;;;6.70;3.42;;;;;;;19.19;58.23;100428.16;6232454;28;20259;-69
2023/07/02 10:08:57;;;;;;;4.95;3.13;;;;;;;19.40;57.91;100440.91;6220658;28;20542;-70
2023/07/02 10:12:19;;;;;;;8.93;3.05;;;;;;;19.41;57.50;100440.69;6245743;28;20231;-68
2023/07/02 10:15:41;;;;;;;6.38;3.95;;;;;;;19.97;57.70;100433.06;6251011;28;20223;-69
2023/07/02 10:19:10;;;;;;;4.82;3.25;;;;;;;20.33;57.23;100452.75;6246027;28;20243;-69
2023/07/02 10:22:43;;;;;;;5.60;3.83;;;;;;;20.31;56.85;100432.94;6250690;28;20228;-70
2023/07/02 10:26:11;;;;;;;5.43;3.08;;;;;;;20.44;56.89;100440.31;6248456;28;20228;-70
2023/07/02 10:29:32;;;;;;;5.55;4.07;;;;;;;20.59;57.42;100443.66;6257101;28;20353;-68
2023/07/02 10:32:53;;;;;;;5.30;3.08;;;;;;;20.22;57.76;100428.72;6229731;28;20227;-70
2023/07/02 10:36:21;;;;;;;5.40;2.70;;;;;;;19.87;59.30;100438.94;6266586;28;20311;-68
2023/07/02 10:39:42;;;;;;;8.35;3.95;;;;;;;19.80;58.51;100450.91;6254333;28;20246;-70
2023/07/02 10:43:03;;;;;;;12.93;3.90;;;;;;;19.60;58.65;100447.28;6242948;28;20237;-69
2023/07/02 10:46:24;;;;;;;4.68;3.08;;;;;;;19.23;59.98;100464.13;6265141;28;20618;-70
2023/07/02 10:49:45;;;;;;;6.82;3.80;;;;;;;18.83;61.90;100479.41;6258943;28;20516;-69
2023/07/02 10:53:16;;;;;;;8.60;2.92;;;;;;;18.58;63.67;100484.47;6236810;28;20236;-68
2023/07/02 10:56:37;;;;;;;7.28;2.70;;;;;;;18.57;64.34;100473.72;6265787;28;20227;-67
2023/07/02 11:00:06;;;;;;;6.03;3.13;;;;;;;18.86;65.63;100476.25;6253957;28;20230;-68
2023/07/02 11:03:27;;;;;;;5.20;3.33;;;;;;;18.68;64.58;100479.50;6236081;28;20235;-69
2023/07/02 11:06:48;;;;;;;9.05;4.25;;;;;;;18.75;63.48;100483.16;6256817;28;20259;-68
2023/07/02 11:10:19;;;;;;;2.70;2.30;;;;;;;19.85;61.48;100473.88;6252995;28;20514;-67
2023/07/02 11:13:46;;;;;;;10.95;3.10;;;;;;;20.01;59.65;100464.44;6242950;28;20231;-68
2023/07/02 11:17:08;;;;;;;6.20;2.72;;;;;;;20.24;58.66;100472.28;6239445;28;20617;-67
2023/07/02 11:20:34;;;;;;;6.38;3.00;;;;;;;20.21;57.26;100462.63;6228730;28;20336;-67
2023/07/02 11:24:02;;;;;;;7.45;2.55;;;;;;;21.24;55.92;100470.16;6241726;28;20234;-68
2023/07/02 11:27:25;;;;;;;5.72;2.50;;;;;;;20.90;56.04;100464.94;6243146;28;20223;-67
2023/07/02 11:30:46;;;;;;;5.68;2.85;;;;;;;20.25;57.47;100483.06;6247217;28;20231;-68
2023/07/02 11:34:12;;;;;;;2.60;2.40;;;;;;;20.53;56.80;100480.97;6239429;28;20239;-68
2023/07/02 11:37:36;;;;;;;8.60;2.78;;;;;;;20.67;55.87;100479.09;6232062;28;20642;-68
2023/07/02 11:40:57;;;;;;;5.35;2.55;;;;;;;21.19;53.65;100473.56;6228283;28;20235;-68
2023/07/02 11:44:19;;;;;;;5.90;2.50;;;;;;;21.13;53.42;100459.88;6231270;28;20250;-68
2023/07/02 11:47:40;;;;;;;4.88;2.47;;;;;;;21.95;52.13;100471.78;6232371;28;20224;-68
2023/07/02 11:51:00;;;;;;;5.00;2.63;;;;;;;21.05;52.52;100469.16;6224607;28;20264;-68
2023/07/02 11:54:21;;;;;;;2.92;1.48;;;;;;;21.19;52.65;100461.75;6233690;28;20630;-67
2023/07/02 11:57:42;;;;;;;3.63;2.25;;;;;;;21.07;52.66;100477.19;6243152;28;20246;-67
2023/07/02 12:01:05;;;;;;;3.75;2.03;;;;;;;20.75;52.78;100475.28;6222818;28;20247;-68
2023/07/02 12:04:26;;;;;;;6.00;2.33;;;;;;;20.26;52.81;100471.03;6220386;28;20227;-67
2023/07/02 12:07:46;;;;;;;6.70;1.95;;;;;;;20.23;53.33;100490.63;6242664;28;20231;-67
2023/07/02 12:11:08;;;;;;;2.22;2.00;;;;;;;20.25;53.56;100507.69;6235802;28;20232;-68
2023/07/02 12:14:29;;;;;;;2.10;1.88;;;;;;;20.57;52.88;100504.16;6240258;28;20562;-67
2023/07/02 12:17:54;;;;;;;3.10;2.25;;;;;;;20.59;52.84;100518.47;6241750;28;20660;-68
2023/07/02 12:21:18;;;;;;;1.92;1.83;;;;;;;21.46;52.94;100512.72;6254215;28;20227;-68
2023/07/02 12:24:39;;;;;;;6.70;3.83;;;;;;;22.46;52.25;100512.03;6230614;28;20733;-66
2023/07/02 12:27:59;;;;;;;5.57;2.92;;;;;;;22.59;51.51;100501.00;6237099;28;20326;-66
2023/07/02 12:31:20;;;;;;;3.00;1.95;;;;;;;22.24;54.02;100503.28;6255077;28;20240;-67
2023/07/02 12:34:42;;;;;;;3.30;1.85;;;;;;;21.86;54.64;100494.25;6240526;28;20244;-67
2023/07/02 12:38:03;;;;;;;2.95;1.88;;;;;;;21.42;54.71;100525.19;6229716;28;20676;-67
2023/07/02 12:41:24;;;;;;;3.30;2.00;;;;;;;21.45;53.10;100506.38;6254676;28;20231;-67
2023/07/02 12:44:45;;;;;;;3.67;1.88;;;;;;;21.51;51.57;100518.38;6237788;28;22615;-67
2023/07/02 12:48:06;;;;;;;2.58;1.95;;;;;;;22.21;50.74;100514.75;6235776;28;20531;-68
2023/07/02 12:51:29;;;;;;;4.82;2.47;;;;;;;22.37;50.62;100516.09;6251579;28;20231;-68
2023/07/02 12:54:50;;;;;;;2.08;1.65;;;;;;;22.99;49.42;100524.31;6243309;28;20231;-68
2023/07/02 12:58:11;;;;;;;3.25;1.92;;;;;;;21.51;50.39;100537.59;6244668;28;20270;-66
2023/07/02 13:01:32;;;;;;;3.50;1.92;;;;;;;21.89;51.21;100516.59;6258432;28;20968;-67
2023/07/02 13:04:53;;;;;;;7.07;3.47;;;;;;;22.28;49.19;100518.28;6246575;28;20251;-67
2023/07/02 13:08:15;;;;;;;3.63;2.20;;;;;;;21.69;50.82;100540.50;6221424;28;20243;-67
2023/07/02 13:11:38;;;;;;;3.17;1.75;;;;;;;22.36;50.67;100547.41;6249983;28;20220;-65
2023/07/02 13:14:59;;;;;;;2.42;1.50;;;;;;;22.66;49.89;100552.09;6258315;28;20321;-66
2023/07/02 13:18:21;;;;;;;4.80;1.95;;;;;;;22.97;49.91;100535.53;6233447;28;20714;-66
2023/07/02 13:21:42;;;;;;;5.60;2.03;;;;;;;22.90;48.48;100543.03;6252735;28;20609;-66
2023/07/02 13:25:04;;;;;;;7.35;1.90;;;;;;;24.02;46.21;100536.31;6243068;28;20327;-66
2023/07/02 13:28:27;;;;;;;2.90;1.80;;;;;;;22.27;47.59;100550.41;6247659;28;20227;-66
2023/07/02 13:31:48;;;;;;;4.47;2.00;;;;;;;21.87;49.76;100532.44;6257435;28;20235;-66
2023/07/02 13:35:09;;;;;;;2.83;1.58;;;;;;;23.22;46.57;100568.53;6253282;28;20306;-65
2023/07/02 13:38:30;;;;;;;2.47;1.90;;;;;;;25.09;43.28;100556.41;6245740;28;20222;-65
2023/07/02 13:41:52;;;;;;;7.65;2.47;;;;;;;26.02;41.66;100559.06;6257912;28;20251;-66
2023/07/02 13:45:13;;;;;;;8.63;2.42;;;;;;;23.32;45.30;100559.78;6257748;28;20235;-66
2023/07/02 13:48:34;;;;;;;9.85;1.75;;;;;;;21.76;48.01;100557.78;6242232;28;20230;-66
2023/07/02 13:51:56;;;;;;;6.85;1.83;;;;;;;21.56;49.21;100564.38;6251797;28;20227;-68
2023/07/02 13:55:17;;;;;;;3.22;2.03;;;;;;;24.63;44.15;100567.28;6262373;28;20218;-67
2023/07/02 13:59:00;;;;;;;1.70;1.35;;;;;;;24.42;42.90;100552.13;6250100;28;20257;-65
2023/07/02 14:02:20;;;;;;;4.00;1.88;;;;;;;21.46;46.73;100560.19;6254698;28;20837;-66
2023/07/02 14:05:41;;;;;;;2.63;1.90;;;;;;;20.91;49.24;100560.66;6238143;28;20231;-66
2023/07/02 14:09:02;;;;;;;2.65;2.05;;;;;;;21.07;49.14;100579.44;6253052;28;20227;-66
2023/07/02 14:12:23;;;;;;;3.85;1.92;;;;;;;22.16;48.06;100572.22;6255703;28;20223;-65
2023/07/02 14:15:45;;;;;;;3.53;1.83;;;;;;;22.73;46.75;100563.88;6259160;28;20358;-66
2023/07/02 14:19:06;;;;;;;3.58;1.65;;;;;;;21.76;48.41;100574.25;6254995;28;21216;-66
2023/07/02 14:22:27;;;;;;;4.43;1.60;;;;;;;21.64;48.96;100592.44;6261964;28;20239;-65
2023/07/02 14:25:48;;;;;;;3.80;1.80;;;;;;;22.37;48.26;100573.78;6259715;28;20235;-66
2023/07/02 14:29:08;;;;;;;8.45;2.53;;;;;;;21.12;48.44;100593.38;6255067;28;20235;-66
2023/07/02 14:32:30;;;;;;;3.85;2.45;;;;;;;21.22;48.53;100604.75;6247758;28;20291;-65
2023/07/02 14:35:51;;;;;;;3.42;1.58;;;;;;;20.99;47.94;100593.31;6233804;28;20235;-66
2023/07/02 14:39:12;;;;;;;5.60;2.10;;;;;;;21.48;48.21;100584.69;6258033;28;20239;-66
2023/07/02 14:42:33;;;;;;;2.63;1.92;;;;;;;22.18;48.32;100587.41;6243047;28;20259;-66
2023/07/02 14:45:56;;;;;;;24.65;2.20;;;;;;;22.52;46.87;100586.19;6246060;28;20322;-64
2023/07/02 14:49:18;;;;;;;2.08;1.17;;;;;;;23.02;46.34;100573.38;6258122;28;20228;-65
2023/07/02 14:52:38;;;;;;;4.63;2.20;;;;;;;22.17;46.55;100591.22;6253729;28;20243;-64
2023/07/02 14:56:01;;;;;;;3.75;1.60;;;;;;;21.91;47.89;100593.22;6228039;28;20235;-67
2023/07/02 14:59:22;;;;;;;4.35;2.17;;;;;;;21.59;48.53;100600.47;6241862;28;20223;-66
2023/07/02 15:02:43;;;;;;;2.92;2.28;;;;;;;21.77;48.65;100603.41;6240145;28;20227;-66
2023/07/02 15:06:10;;;;;;;3.78;1.83;;;;;;;21.79;48.70;100600.44;6239800;28;20231;-65
2023/07/02 15:09:31;;;;;;;4.63;1.92;;;;;;;21.90;49.39;100597.06;6248004;28;20227;-67
2023/07/02 15:12:52;;;;;;;1.85;1.65;;;;;;;21.73;50.14;100598.53;6235853;28;20227;-67
2023/07/02 15:16:13;;;;;;;3.90;2.05;;;;;;;21.31;49.48;100599.88;6256641;28;20224;-66
2023/07/02 15:19:34;;;;;;;14.57;2.67;;;;;;;20.95;48.77;100591.22;6244117;28;20231;-66
2023/07/02 15:22:56;;;;;;;3.95;1.95;;;;;;;21.06;49.27;100596.94;6230151;28;20231;-66
2023/07/02 15:26:17;;;;;;;4.82;2.20;;;;;;;21.44;48.90;100613.59;6260028;28;20258;-66
2023/07/02 15:29:38;;;;;;;5.93;2.08;;;;;;;21.00;47.85;100611.47;6253600;28;20243;-66
2023/07/02 15:32:58;;;;;;;6.95;2.17;;;;;;;21.25;47.59;100615.31;6243773;28;20220;-66
2023/07/02 15:36:21;;;;;;;6.53;2.67;;;;;;;21.62;48.11;100622.00;6263019;28;20236;-67